createdAt,value
2019-04-28T00:01:22.172Z,61.50
2019-04-28T00:03:53.628Z,61.30
2019-04-28T00:06:25.265Z,60.90
2019-04-28T00:09:01.610Z,61.10
2019-04-28T00:11:32.481Z,60.90
2019-04-28T00:14:03.894Z,60.60
2019-04-28T00:16:35.378Z,60.90
2019-04-28T00:19:07.917Z,60.60
2019-04-28T00:21:41.502Z,60.50
2019-04-28T00:24:13.975Z,60.30
2019-04-28T00:26:46.603Z,60.50
2019-04-28T00:29:18.101Z,60.30
2019-04-28T00:31:51.166Z,60.80
2019-04-28T00:34:22.646Z,60.30
2019-04-28T00:36:55.175Z,60.60
2019-04-28T00:39:26.472Z,60.40
2019-04-28T00:41:57.796Z,60.60
2019-04-28T00:44:29.239Z,60.10
2019-04-28T00:47:01.218Z,60.50
2019-04-28T00:49:33.688Z,60.30
2019-04-28T00:52:05.146Z,60.20
2019-04-28T00:54:36.574Z,60.00
2019-04-28T00:57:08.157Z,59.90
2019-04-28T00:59:51.996Z,59.80
2019-04-28T01:02:13.427Z,59.90
2019-04-28T01:04:44.955Z,59.70
2019-04-28T01:07:16.389Z,59.20
2019-04-28T01:09:47.837Z,59.20
2019-04-28T01:12:20.686Z,59.20
2019-04-28T01:14:52.929Z,58.50
2019-04-28T01:17:26.007Z,58.00
2019-04-28T01:19:59.790Z,57.90
2019-04-28T01:22:31.322Z,57.80
2019-04-28T01:25:02.735Z,57.40
2019-04-28T01:27:34.078Z,56.60
2019-04-28T01:30:10.658Z,56.60
2019-04-28T01:32:41.622Z,56.20
2019-04-28T01:35:13.389Z,54.80
2019-04-28T01:37:44.893Z,54.60
2019-04-28T01:40:16.216Z,54.00
2019-04-28T01:42:50.428Z,53.60
2019-04-28T01:45:20.755Z,54.10
2019-04-28T01:47:52.075Z,53.60
2019-04-28T01:50:23.332Z,52.30
2019-04-28T01:52:54.810Z,52.60
2019-04-28T01:55:26.476Z,52.40
2019-04-28T01:57:59.569Z,52.20
2019-04-28T02:00:30.941Z,51.20
2019-04-28T02:03:02.306Z,51.40
2019-04-28T02:05:33.698Z,50.70
2019-04-28T02:08:05.170Z,49.90
2019-04-28T02:10:36.579Z,49.80
2019-04-28T02:13:09.591Z,49.60
2019-04-28T02:15:40.741Z,49.60
2019-04-28T02:18:11.974Z,49.70
2019-04-28T02:20:44.485Z,49.00
2019-04-28T02:23:17.045Z,48.60
2019-04-28T02:25:49.776Z,48.00
2019-04-28T02:28:21.230Z,47.80
2019-04-28T02:30:53.745Z,47.40
2019-04-28T02:33:25.584Z,47.30
2019-04-28T02:36:01.441Z,47.30
2019-04-28T02:38:34.282Z,47.20
2019-04-28T02:41:05.885Z,46.60
2019-04-28T02:43:37.432Z,46.00
2019-04-28T02:46:10.550Z,45.80
2019-04-28T02:48:41.429Z,46.40
2019-04-28T02:51:14.253Z,46.50
2019-04-28T02:53:46.291Z,46.20
2019-04-28T02:56:17.633Z,45.80
2019-04-28T02:58:51.080Z,44.60
2019-04-28T03:01:26.071Z,44.00
2019-04-28T03:03:54.499Z,44.20
2019-04-28T03:06:25.955Z,44.40
2019-04-28T03:08:57.270Z,43.60
2019-04-28T03:11:31.213Z,43.50
2019-04-28T03:14:01.251Z,44.20
2019-04-28T03:16:32.668Z,43.70
2019-04-28T03:19:04.008Z,43.50
2019-04-28T03:21:35.597Z,43.60
2019-04-28T03:24:06.807Z,43.20
2019-04-28T03:26:42.243Z,43.50
2019-04-28T03:29:15.137Z,43.90
2019-04-28T03:32:10.219Z,43.40
2019-04-28T03:34:23.343Z,43.60
2019-04-28T03:36:53.131Z,43.60
2019-04-28T03:39:24.586Z,43.20
2019-04-28T03:41:55.911Z,42.30
2019-04-28T03:44:27.337Z,41.90
2019-04-28T03:47:02.752Z,41.90
2019-04-28T03:49:32.678Z,42.10
2019-04-28T03:52:05.955Z,42.20
2019-04-28T03:54:37.412Z,41.80
2019-04-28T03:57:11.121Z,41.80
2019-04-28T03:59:43.844Z,41.60
2019-04-28T04:02:15.673Z,41.70
2019-04-28T04:04:46.913Z,41.90
2019-04-28T04:07:21.216Z,41.80
2019-04-28T04:09:52.290Z,41.80
2019-04-28T04:12:25.007Z,42.00
2019-04-28T04:14:57.629Z,41.90
2019-04-28T04:17:30.979Z,41.50
2019-04-28T04:20:02.978Z,40.80
2019-04-28T04:22:34.405Z,41.50
2019-04-28T04:25:08.949Z,41.50
2019-04-28T04:27:40.613Z,41.50
2019-04-28T04:30:13.084Z,41.40
2019-04-28T04:32:44.530Z,41.20
2019-04-28T04:35:15.768Z,41.10
2019-04-28T04:37:50.337Z,41.00
2019-04-28T04:40:20.983Z,40.80
2019-04-28T04:42:52.297Z,41.20
2019-04-28T04:45:23.826Z,40.70
2019-04-28T04:48:01.141Z,40.60
2019-04-28T04:50:32.384Z,40.30
2019-04-28T04:53:03.730Z,40.60
2019-04-28T04:55:35.093Z,39.90
2019-04-28T04:58:10.538Z,40.20
2019-04-28T05:00:43.284Z,40.30
2019-04-28T05:03:16.133Z,40.20
2019-04-28T05:05:47.369Z,40.10
2019-04-28T05:08:20.231Z,40.20
2019-04-28T05:10:51.480Z,39.90
2019-04-28T05:13:22.875Z,40.00
2019-04-28T05:15:54.114Z,39.90
2019-04-28T05:18:25.382Z,39.90
2019-04-28T05:20:56.815Z,39.90
2019-04-28T05:23:29.742Z,39.50
2019-04-28T05:26:07.859Z,39.70
2019-04-28T05:28:36.871Z,40.50
2019-04-28T05:31:07.030Z,39.80
2019-04-28T05:33:39.595Z,39.50
2019-04-28T05:36:11.988Z,39.60
2019-04-28T05:38:43.227Z,39.40
2019-04-28T05:41:14.794Z,39.30
2019-04-28T05:43:46.243Z,39.00
2019-04-28T05:46:19.641Z,39.30
2019-04-28T05:48:51.719Z,39.60
2019-04-28T05:51:24.160Z,39.60
2019-04-28T05:53:56.874Z,39.30
2019-04-28T05:56:29.586Z,39.40
2019-04-28T05:59:02.253Z,39.50
2019-04-28T06:01:40.505Z,39.40
2019-04-28T06:04:11.313Z,39.10
2019-04-28T06:06:43.705Z,39.50
2019-04-28T06:09:16.275Z,39.40
2019-04-28T06:11:49.523Z,39.40
2019-04-28T06:14:20.576Z,39.50
2019-04-28T06:16:52.107Z,40.10
2019-04-28T06:19:23.438Z,40.00
2019-04-28T06:21:54.790Z,40.20
2019-04-28T06:24:26.210Z,39.90
2019-04-28T06:26:57.544Z,39.60
2019-04-28T06:29:28.992Z,39.30
2019-04-28T06:32:00.653Z,39.80
2019-04-28T06:34:32.162Z,39.50
2019-04-28T06:37:03.349Z,39.20
2019-04-28T06:39:34.666Z,39.10
2019-04-28T06:42:06.031Z,39.00
2019-04-28T06:44:37.282Z,39.50
2019-04-28T06:47:08.701Z,39.50
2019-04-28T06:49:40.129Z,39.50
2019-04-28T06:52:11.538Z,39.50
2019-04-28T06:54:43.020Z,39.50
2019-04-28T06:57:14.496Z,40.00
2019-04-28T06:59:45.898Z,40.00
2019-04-28T07:02:17.225Z,40.00
2019-04-28T07:05:00.716Z,40.20
2019-04-28T07:07:21.385Z,40.00
2019-04-28T07:09:54.888Z,39.70
2019-04-28T07:12:26.128Z,39.50
2019-04-28T07:14:57.384Z,39.00
2019-04-28T07:17:28.729Z,38.90
2019-04-28T07:20:01.466Z,39.30
2019-04-28T07:22:34.119Z,39.30
2019-04-28T07:25:05.826Z,38.90
2019-04-28T07:27:37.215Z,38.80
2019-04-28T07:30:10.241Z,38.80
2019-04-28T07:32:41.671Z,38.40
2019-04-28T07:35:13.376Z,38.10
2019-04-28T07:37:44.705Z,38.30
2019-04-28T07:40:19.051Z,38.30
2019-04-28T07:42:50.183Z,38.10
2019-04-28T07:45:21.483Z,38.20
2019-04-28T07:47:52.806Z,38.20
2019-04-28T07:50:24.222Z,38.10
2019-04-28T07:52:56.630Z,38.20
2019-04-28T07:55:28.072Z,38.20
2019-04-28T07:58:00.614Z,38.60
2019-04-28T08:00:33.121Z,38.80
2019-04-28T08:03:04.647Z,37.80
2019-04-28T08:05:35.991Z,37.70
2019-04-28T08:08:07.370Z,36.90
2019-04-28T08:10:38.839Z,37.40
2019-04-28T08:13:10.421Z,36.80
2019-04-28T08:15:44.234Z,36.80
2019-04-28T08:18:15.670Z,37.10
2019-04-28T08:20:47.259Z,37.50
2019-04-28T08:23:18.660Z,37.20
2019-04-28T08:25:49.883Z,36.70
2019-04-28T08:28:21.090Z,37.20
2019-04-28T08:30:52.532Z,37.20
2019-04-28T08:33:28.100Z,36.90
2019-04-28T08:35:59.406Z,37.10
2019-04-28T08:38:31.785Z,37.40
2019-04-28T08:41:03.228Z,37.20
2019-04-28T08:43:34.666Z,37.20
2019-04-28T08:46:06.225Z,36.80
2019-04-28T08:48:37.538Z,37.00
2019-04-28T08:51:08.979Z,37.00
2019-04-28T08:53:40.313Z,37.30
2019-04-28T08:56:11.939Z,37.30
2019-04-28T08:58:47.329Z,36.70
2019-04-28T09:01:18.882Z,36.70
2019-04-28T09:03:50.134Z,36.60
2019-04-28T09:06:21.372Z,37.20
2019-04-28T09:08:53.011Z,36.80
2019-04-28T09:11:24.596Z,36.50
2019-04-28T09:13:55.998Z,36.30
2019-04-28T09:16:27.368Z,37.00
2019-04-28T09:18:58.924Z,37.00
2019-04-28T09:21:31.422Z,36.80
2019-04-28T09:24:03.015Z,36.70
2019-04-28T09:26:36.898Z,36.00
2019-04-28T09:29:07.399Z,36.00
2019-04-28T09:31:42.465Z,36.70
2019-04-28T09:34:12.733Z,36.90
2019-04-28T09:36:44.187Z,36.90
2019-04-28T09:39:16.809Z,36.60
2019-04-28T09:41:49.287Z,36.80
2019-04-28T09:44:21.388Z,36.80
2019-04-28T09:46:53.327Z,36.70
2019-04-28T09:49:24.827Z,36.80
2019-04-28T09:51:56.355Z,37.00
2019-04-28T09:54:30.429Z,36.80
2019-04-28T09:57:01.657Z,36.50
2019-04-28T09:59:33.190Z,36.40
2019-04-28T10:02:04.739Z,36.40
2019-04-28T10:04:41.591Z,36.70
2019-04-28T10:07:09.907Z,36.40
2019-04-28T10:09:41.220Z,36.60
2019-04-28T10:12:26.551Z,40.80
2019-04-28T10:14:45.390Z,42.20
2019-04-28T10:17:16.711Z,43.30
2019-04-28T10:19:48.086Z,43.70
2019-04-28T10:22:19.624Z,43.70
2019-04-28T10:24:53.442Z,43.80
2019-04-28T10:27:23.773Z,44.00
2019-04-28T10:29:55.241Z,44.20
2019-04-28T10:32:27.538Z,44.30
2019-04-28T10:34:58.984Z,44.70
2019-04-28T10:37:30.316Z,45.30
2019-04-28T10:40:02.932Z,46.20
2019-04-28T10:42:34.210Z,45.40
2019-04-28T10:45:07.000Z,46.40
2019-04-28T10:47:38.448Z,46.50
2019-04-28T10:50:10.552Z,46.50
2019-04-28T10:52:41.714Z,46.20
2019-04-28T10:55:13.180Z,46.80
2019-04-28T10:57:44.591Z,46.80
2019-04-28T11:00:17.410Z,47.10
2019-04-28T11:02:48.750Z,47.50
2019-04-28T11:05:21.146Z,47.70
2019-04-28T11:07:52.906Z,48.30
2019-04-28T11:10:24.473Z,47.80
2019-04-28T11:12:58.369Z,47.80
2019-04-28T11:15:30.015Z,48.20
2019-04-28T11:18:01.468Z,47.80
2019-04-28T11:20:33.085Z,47.90
2019-04-28T11:23:04.332Z,47.40
2019-04-28T11:25:35.773Z,47.70
2019-04-28T11:28:07.504Z,47.70
2019-04-28T11:30:38.902Z,47.50
2019-04-28T11:33:11.731Z,47.60
2019-04-28T11:35:44.583Z,47.70
2019-04-28T11:38:16.003Z,47.70
2019-04-28T11:40:47.493Z,47.70
2019-04-28T11:43:18.848Z,47.90
2019-04-28T11:45:50.171Z,48.00
2019-04-28T11:48:21.820Z,48.10
2019-04-28T11:50:53.225Z,48.30
2019-04-28T11:53:24.640Z,48.30
2019-04-28T11:55:56.133Z,48.40
2019-04-28T11:58:27.486Z,48.40
2019-04-28T12:00:59.278Z,48.70
2019-04-28T12:03:30.593Z,48.80
2019-04-28T12:06:02.038Z,49.20
2019-04-28T12:08:33.508Z,49.10
2019-04-28T12:11:09.640Z,49.20
2019-04-28T12:13:43.951Z,49.20
2019-04-28T12:16:16.521Z,49.40
2019-04-28T12:18:47.628Z,49.60
2019-04-28T12:21:19.181Z,49.60
2019-04-28T12:23:50.531Z,49.80
2019-04-28T12:26:22.045Z,49.60
2019-04-28T12:28:53.386Z,49.90
2019-04-28T12:31:24.743Z,49.80
2019-04-28T12:33:56.124Z,49.60
2019-04-28T12:36:27.760Z,49.70
2019-04-28T12:38:59.161Z,49.70
2019-04-28T12:41:30.560Z,49.70
2019-04-28T12:44:01.912Z,49.60
2019-04-28T12:46:33.247Z,49.70
2019-04-28T12:49:05.905Z,49.60
2019-04-28T12:51:37.426Z,49.50
2019-04-28T12:54:10.050Z,49.50
2019-04-28T12:56:41.344Z,49.60
2019-04-28T12:59:14.004Z,49.60
2019-04-28T13:01:46.611Z,49.50
2019-04-28T13:04:18.932Z,49.60
2019-04-28T13:06:51.779Z,49.80
2019-04-28T13:09:23.197Z,49.80
2019-04-28T13:11:54.647Z,49.90
2019-04-28T13:14:25.975Z,49.90
2019-04-28T13:16:57.773Z,50.10
2019-04-28T13:19:29.192Z,50.20
2019-04-28T13:22:00.624Z,50.60
2019-04-28T13:24:32.340Z,50.50
2019-04-28T13:27:03.860Z,50.30
2019-04-28T13:29:35.185Z,50.10
2019-04-28T13:32:06.603Z,50.20
2019-04-28T13:34:38.992Z,50.20
2019-04-28T13:37:10.649Z,50.40
2019-04-28T13:39:43.139Z,50.50
2019-04-28T13:42:14.588Z,50.90
2019-04-28T13:44:46.951Z,51.10
2019-04-28T13:47:18.542Z,51.40
2019-04-28T13:50:03.814Z,51.50
2019-04-28T13:52:39.483Z,51.70
2019-04-28T13:55:12.329Z,52.10
2019-04-28T13:57:43.659Z,52.30
2019-04-28T14:00:16.452Z,52.50
2019-04-28T14:02:48.992Z,52.50
2019-04-28T14:05:22.516Z,52.90
2019-04-28T14:07:58.729Z,53.20
2019-04-28T14:10:29.325Z,52.80
2019-04-28T14:13:28.068Z,52.90
2019-04-28T14:19:06.669Z,53.40
2019-04-28T14:21:37.930Z,53.60
2019-04-28T14:24:09.222Z,53.60
2019-04-28T14:26:40.643Z,53.50
2019-04-28T14:29:12.275Z,53.70
2019-04-28T14:31:50.465Z,53.70
2019-04-28T14:34:21.731Z,54.00
2019-04-28T14:36:57.659Z,54.50
2019-04-28T14:42:25.713Z,54.60
2019-04-28T14:45:05.189Z,54.60
2019-04-28T14:47:40.409Z,55.10
2019-04-28T14:50:12.229Z,54.70
2019-04-28T14:52:47.719Z,55.50
2019-04-28T14:55:19.490Z,55.40
2019-04-28T14:57:50.701Z,54.90
2019-04-28T15:00:23.394Z,55.40
2019-04-28T15:02:58.747Z,55.80
2019-04-28T15:05:29.961Z,55.20
2019-04-28T15:08:21.537Z,55.40
2019-04-28T15:11:18.107Z,55.20
2019-04-28T15:13:45.051Z,55.20
2019-04-28T15:16:20.375Z,55.10
2019-04-28T15:18:55.441Z,55.20
2019-04-28T15:21:26.872Z,55.40
2019-04-28T15:26:49.183Z,55.50
2019-04-28T15:29:28.007Z,55.20
2019-04-28T15:31:59.340Z,55.20
2019-04-28T15:34:31.801Z,55.10
2019-04-28T15:37:09.828Z,55.20
2019-04-28T15:39:36.924Z,55.20
2019-04-28T15:42:08.351Z,54.90
2019-04-28T15:44:49.386Z,54.90
2019-04-28T15:50:20.248Z,54.80
2019-04-28T15:52:51.686Z,54.60
2019-04-28T15:55:24.212Z,54.80
2019-04-28T15:57:55.613Z,54.90
2019-04-28T16:00:27.054Z,55.10
2019-04-28T16:02:58.296Z,55.10
2019-04-28T16:05:29.630Z,55.00
2019-04-28T16:08:00.962Z,55.20
2019-04-28T16:10:32.312Z,55.20
2019-04-28T16:13:03.670Z,55.10
2019-04-28T16:15:35.084Z,55.20
2019-04-28T16:18:06.621Z,55.10
2019-04-28T16:20:37.901Z,54.80
2019-04-28T16:23:09.465Z,54.80
2019-04-28T16:25:40.958Z,54.60
2019-04-28T16:28:12.508Z,54.60
2019-04-28T16:30:43.802Z,54.60
2019-04-28T16:33:30.165Z,54.60
2019-04-28T16:36:01.495Z,54.50
2019-04-28T16:38:32.813Z,54.70
2019-04-28T16:41:04.986Z,54.70
2019-04-28T16:43:36.948Z,54.50
2019-04-28T16:46:08.450Z,55.00
2019-04-28T16:48:39.988Z,54.90
2019-04-28T16:51:14.398Z,55.00
2019-04-28T16:53:48.806Z,55.20
2019-04-28T16:56:20.634Z,55.30
2019-04-28T16:58:53.151Z,55.40
2019-04-28T17:01:25.652Z,55.60
2019-04-28T17:03:57.188Z,55.70
2019-04-28T17:06:28.714Z,55.60
2019-04-28T17:09:00.152Z,55.70
2019-04-28T17:11:31.617Z,55.80
2019-04-28T17:14:02.944Z,55.80
2019-04-28T17:16:34.222Z,56.00
2019-04-28T17:19:05.707Z,55.90
2019-04-28T17:21:37.251Z,56.10
2019-04-28T17:24:08.885Z,56.10
2019-04-28T17:26:40.305Z,56.10
2019-04-28T17:29:11.642Z,56.30
2019-04-28T17:31:44.061Z,56.20
2019-04-28T17:34:15.538Z,56.30
2019-04-28T17:36:47.204Z,56.20
2019-04-28T17:39:19.943Z,56.40
2019-04-28T17:41:51.771Z,56.60
2019-04-28T17:44:23.177Z,56.70
2019-04-28T17:46:54.620Z,56.60
2019-04-28T17:49:27.242Z,56.80
2019-04-28T17:51:58.765Z,56.90
2019-04-28T17:54:30.206Z,57.10
2019-04-28T17:57:01.739Z,56.90
2019-04-28T17:59:32.984Z,57.00
2019-04-28T18:02:05.427Z,57.20
2019-04-28T18:04:37.742Z,57.00
2019-04-28T18:07:10.275Z,57.30
2019-04-28T18:09:41.714Z,57.20
2019-04-28T18:12:13.042Z,57.20
2019-04-28T18:14:45.765Z,57.40
2019-04-28T18:17:18.422Z,57.20
2019-04-28T18:19:49.825Z,57.50
2019-04-28T18:22:54.609Z,57.50
2019-04-28T18:24:56.865Z,57.80
2019-04-28T18:27:28.093Z,57.90
2019-04-28T18:29:59.538Z,58.20
2019-04-28T18:32:31.958Z,58.50
2019-04-28T18:35:05.001Z,58.70
2019-04-28T18:37:37.620Z,59.00
2019-04-28T18:40:11.140Z,58.80
2019-04-28T18:42:43.626Z,59.20
2019-04-28T18:45:15.566Z,59.00
2019-04-28T18:47:46.978Z,59.20
2019-04-28T18:50:18.585Z,59.50
2019-04-28T18:52:52.715Z,59.40
2019-04-28T18:55:24.392Z,59.40
2019-04-28T18:57:56.036Z,59.50
2019-04-28T19:00:28.536Z,59.00
2019-04-28T19:03:11.191Z,59.30
2019-04-28T19:05:44.124Z,58.90
2019-04-28T19:08:17.624Z,59.30
2019-04-28T19:10:50.115Z,59.60
2019-04-28T19:13:22.549Z,59.70
2019-04-28T19:15:55.077Z,59.90
2019-04-28T19:18:26.250Z,59.90
2019-04-28T19:20:57.714Z,60.10
2019-04-28T19:23:29.174Z,60.00
2019-04-28T19:26:01.821Z,60.50
2019-04-28T19:28:33.275Z,60.20
2019-04-28T19:31:04.606Z,60.40
2019-04-28T19:33:35.888Z,60.60
2019-04-28T19:36:07.489Z,60.40
2019-04-28T19:38:40.487Z,60.80
2019-04-28T19:41:11.627Z,60.60
2019-04-28T19:43:42.941Z,60.70
2019-04-28T19:46:15.561Z,61.00
2019-04-28T19:48:54.208Z,61.10
2019-04-28T19:51:31.073Z,61.00
2019-04-28T19:53:52.995Z,61.00
2019-04-28T19:56:25.428Z,61.10
2019-04-28T19:58:58.025Z,61.40
2019-04-28T20:01:30.704Z,61.10
2019-04-28T20:04:02.154Z,60.80
2019-04-28T20:06:33.597Z,61.30
2019-04-28T20:09:06.083Z,61.60
2019-04-28T20:11:37.724Z,61.80
2019-04-28T20:14:09.762Z,61.60
2019-04-28T20:16:41.397Z,61.40
2019-04-28T20:19:12.823Z,61.40
2019-04-28T20:21:44.209Z,61.50
2019-04-28T20:24:15.611Z,61.50
2019-04-28T20:26:46.921Z,61.80
2019-04-28T20:29:18.276Z,61.70
2019-04-28T20:31:49.498Z,61.60
2019-04-28T20:34:21.152Z,61.60
2019-04-28T20:36:53.630Z,61.70
2019-04-28T20:39:26.139Z,61.70
2019-04-28T20:41:58.686Z,61.80
2019-04-28T20:44:30.062Z,61.40
2019-04-28T20:47:01.626Z,61.60
2019-04-28T20:49:33.159Z,61.70
2019-04-28T20:52:04.702Z,61.70
2019-04-28T20:54:36.242Z,61.80
2019-04-28T20:57:07.472Z,61.80
2019-04-28T20:59:38.922Z,61.90
2019-04-28T21:02:10.375Z,62.00
2019-04-28T21:04:41.806Z,62.10
2019-04-28T21:07:13.062Z,62.00
2019-04-28T21:09:44.535Z,62.10
2019-04-28T21:12:15.969Z,62.40
2019-04-28T21:14:47.254Z,62.50
2019-04-28T21:17:19.505Z,62.50
2019-04-28T21:19:50.775Z,62.60
2019-04-28T21:22:22.202Z,62.90
2019-04-28T21:24:53.543Z,62.70
2019-04-28T21:27:24.997Z,62.70
2019-04-28T21:29:56.472Z,63.20
2019-04-28T21:32:27.784Z,63.10
2019-04-28T21:34:59.739Z,63.30
2019-04-28T21:37:30.986Z,63.20
2019-04-28T21:40:03.274Z,63.20
2019-04-28T21:42:35.926Z,63.20
2019-04-28T21:45:17.357Z,63.40
2019-04-28T21:47:48.843Z,63.40
2019-04-28T21:50:20.178Z,63.50
2019-04-28T21:52:51.558Z,63.40
2019-04-28T21:55:22.906Z,63.40
2019-04-28T21:57:54.338Z,63.60
2019-04-28T22:00:29.251Z,63.70
2019-04-28T22:03:00.455Z,63.70
2019-04-28T22:05:31.782Z,63.90
2019-04-28T22:08:03.132Z,63.80
2019-04-28T22:10:34.482Z,63.70
2019-04-28T22:13:05.727Z,64.10
2019-04-28T22:15:37.097Z,63.90
2019-04-28T22:18:09.351Z,63.90
2019-04-28T22:20:40.647Z,63.70
2019-04-28T22:23:18.679Z,63.70
2019-04-28T22:25:46.048Z,63.70
2019-04-28T22:28:17.449Z,63.80
2019-04-28T22:30:48.889Z,63.90
2019-04-28T22:33:20.342Z,63.90
2019-04-28T22:35:51.796Z,65.10
2019-04-28T22:38:23.253Z,64.00
2019-04-28T22:40:54.500Z,64.00
2019-04-28T22:43:25.744Z,64.00
2019-04-28T22:45:57.107Z,64.20
2019-04-28T22:48:28.645Z,64.00
2019-04-28T22:51:00.151Z,64.00
2019-04-28T22:53:32.901Z,64.20
2019-04-28T22:56:05.372Z,64.10
2019-04-28T22:58:37.968Z,64.20
2019-04-28T23:01:10.544Z,64.20
2019-04-28T23:03:43.380Z,64.20
2019-04-28T23:06:15.777Z,63.60
2019-04-28T23:08:47.352Z,64.10
2019-04-28T23:11:18.689Z,64.20
2019-04-28T23:13:50.047Z,64.20
2019-04-28T23:16:21.808Z,64.20
2019-04-28T23:18:53.748Z,64.20
2019-04-28T23:21:26.310Z,63.50
2019-04-28T23:23:57.780Z,63.90
2019-04-28T23:26:28.977Z,63.80
2019-04-28T23:29:00.329Z,64.40
2019-04-28T23:31:31.619Z,63.30
2019-04-28T23:34:03.197Z,63.40
2019-04-28T23:36:34.518Z,63.40
2019-04-28T23:39:07.731Z,62.90
2019-04-28T23:41:40.409Z,62.70
2019-04-28T23:44:11.841Z,62.70
2019-04-28T23:46:44.376Z,62.80
2019-04-28T23:49:21.510Z,62.60
2019-04-28T23:51:54.047Z,62.30
2019-04-28T23:54:26.725Z,62.50
2019-04-28T23:57:01.221Z,62.90
2019-04-28T23:59:32.484Z,62.80
